Aérodrome :
LOGIN :

S'inscrire | Disclaimer

   EN    FR    IT 

 










Légende :    VFR   VFR Marginal   IFR   IFR Intensif   IFR Très Intensif
Visi : 
Plafond : 
>= 8 km
>= 3000ft
5 à 8 km
1000 à 3000 ft
1500m à 5 km
500 à 1000 ft
800 à 1500m
200 à 500 ft
< 800m
< 200 ft
Symboles :   Orages  Brouillard  Fortes neiges  Fortes précipitations  Vent > 20 kt
SIGMETs :   Divers  Orages  Givrage  Turbulence  Onde Orograph.  Cendres Volcan.







- Altitude de l'aérodrome : 36 ft
- Code IATA : LTQ
- Voir les cartes d'approche


LFAT - Le Touquet

DERNIER METAR :
  • 181800Z AUTO 27005KT 8000 BKN025 OVC035 09/08 Q1016 TEMPO 3000 -RA BKN005 BKN020

METARs EXPIRÉS :
  • 181730Z AUTO 27004KT 240V300 7000 FEW028 BKN035 BKN048 09/08 Q1016 TEMPO 3000 -RA BKN005 BKN020
  • 181700Z AUTO 27003KT 250V310 7000 FEW010 BKN028 BKN037 09/08 Q1016 TEMPO 3000 -RA BKN005 BKN020
  • 181630Z AUTO 27004KT 8000 FEW010 SCT014 BKN022 09/07 Q1016 TEMPO BKN005 BKN020
  • 181600Z AUTO 29005KT 250V340 9000 FEW019 BKN028 OVC052 10/08 Q1016 TEMPO BKN005 BKN020
  • 181530Z AUTO VRB02KT 9999 SCT019 BKN033 BKN039 10/08 Q1015 TEMPO BKN005 BKN020

TAF AMD TAF LFAT
Valide du 18 à 16h jusqu'au 19 à 00h UTC


181626Z 1816/1824 26008KT 9999 BKN020
TEMPO 1817/1821 3000 -RA BKN005 BKN020
PROB30
TEMPO 1821/1824 BKN005
ATIS : +33 3 21 06 62 84
Pas de NOTAMs connus pour ce terrain.



MET'MAP, la Météo Aéronautique d'un coup d'oeil ! - Copyright ORBIFLY Décembre 2007 - Disclaimer

ORBIFLY MET'MAP TEAM :

Programmation & Développement : Alexandra Zaïnal
Conception & Développement : Baudouin d'Aumeries
Co-Programmation & Développement : Marc-Olivier Méhu
Soutien technique & logistique : Manuel Goepfert

Contact : metmap@orbifly.com




SOURCES & CREDITS :

   NOAA